Time;durP1;ratioP1;P1;durP2;ratioP2;P2;SDS_P1;SDS_P2;PMS_P1;PMS_P2;Temp;Humidity;BMP_temperature;BMP_pressure;BME280_temperature;BME280_humidity;BME280_pressure;Samples;Min_cycle;Max_cycle;Signal;HPM_P1;HPM_P2
2023/01/15 00:01:28;;;;;;;;;0.00;0.00;;;;;-146.37;100.00;59337.28;5076218;28;28638;-82
2023/01/15 00:03:55;;;;;;;;;1.00;0.00;;;;;-146.37;100.00;59337.28;5061570;28;30787;-82
2023/01/15 00:06:21;;;;;;;;;2.00;0.00;;;;;-146.37;100.00;59337.28;5080578;28;28488;-82
2023/01/15 00:08:47;;;;;;;;;1.20;0.00;;;;;-146.37;100.00;59337.28;5081065;28;27895;-83
2023/01/15 00:11:13;;;;;;;;;1.00;1.00;;;;;-146.37;100.00;59337.28;5063359;28;28748;-82
2023/01/15 00:13:41;;;;;;;;;0.00;0.00;;;;;-146.37;100.00;59337.28;5062302;28;30723;-82
2023/01/15 00:16:10;;;;;;;;;1.00;1.00;;;;;-146.37;100.00;59337.28;5080976;28;27844;-82
2023/01/15 00:18:35;;;;;;;;;0.00;0.00;;;;;-146.37;100.00;59337.28;5062949;28;28455;-82
2023/01/15 00:21:03;;;;;;;;;0.67;0.67;;;;;-146.37;100.00;59337.28;5079650;28;28482;-82
2023/01/15 00:29:02;;;;;;;;;2.50;0.75;;;;;-146.37;100.00;59337.28;5079654;28;27801;-82
2023/01/15 00:31:30;;;;;;;;;1.00;0.00;;;;;-146.37;100.00;59337.28;5061311;28;28648;-82
2023/01/15 00:33:55;;;;;;;;;1.00;0.00;;;;;-146.37;100.00;59337.28;5060818;28;31056;-82
2023/01/15 00:36:22;;;;;;;;;0.00;0.00;;;;;-146.37;100.00;59337.28;5060919;28;28558;-81
2023/01/15 00:38:47;;;;;;;;;0.00;0.00;;;;;-146.37;100.00;59337.28;5066867;28;28475;-81
2023/01/15 00:41:13;;;;;;;;;1.00;1.00;;;;;-146.37;100.00;59337.28;5080507;28;27800;-83
2023/01/15 00:43:38;;;;;;;;;1.00;1.00;;;;;-146.37;100.00;59337.28;5079981;28;28416;-81
2023/01/15 00:46:04;;;;;;;;;1.00;0.00;;;;;-146.37;100.00;59337.28;5078771;28;28405;-81
2023/01/15 00:48:30;;;;;;;;;0.00;0.00;;;;;-146.37;100.00;59337.28;5079664;28;28567;-81
2023/01/15 00:50:56;;;;;;;;;0.80;0.80;;;;;-146.37;100.00;59337.28;5079737;28;28543;-81
2023/01/15 00:53:21;;;;;;;;;1.00;0.00;;;;;-146.37;100.00;59337.28;5080769;28;28420;-82
2023/01/15 00:55:46;;;;;;;;;1.00;0.00;;;;;-146.37;100.00;59337.28;5078969;28;28849;-81
2023/01/15 00:58:12;;;;;;;;;0.00;0.00;;;;;-146.37;100.00;59337.28;5079680;28;27820;-81
2023/01/15 01:00:37;;;;;;;;;0.00;0.00;;;;;-146.37;100.00;59337.28;5072479;28;28632;-82
2023/01/15 01:03:03;;;;;;;;;0.00;0.00;;;;;-146.37;100.00;59337.28;5060001;28;28549;-82
2023/01/15 01:05:29;;;;;;;;;1.00;1.00;;;;;-146.37;100.00;59337.28;5059808;28;28587;-82
2023/01/15 01:07:55;;;;;;;;;0.80;0.80;;;;;-146.37;100.00;59337.28;5058609;28;28559;-82
2023/01/15 01:10:20;;;;;;;;;0.25;0.25;;;;;-146.37;100.00;59337.28;5060572;28;27894;-82
2023/01/15 01:12:47;;;;;;;;;0.75;0.75;;;;;-146.37;100.00;59337.28;5059723;28;29106;-82
2023/01/15 01:15:12;;;;;;;;;2.00;2.00;;;;;-146.37;100.00;59337.28;5057788;28;28906;-82
2023/01/15 01:17:38;;;;;;;;;1.00;0.25;;;;;-146.37;100.00;59337.28;5060543;28;28464;-82
2023/01/15 01:20:05;;;;;;;;;1.00;0.00;;;;;-146.37;100.00;59337.28;5059331;28;27963;-81
2023/01/15 01:22:32;;;;;;;;;0.60;0.60;;;;;-146.37;100.00;59337.28;5058643;28;30687;-81
2023/01/15 01:24:58;;;;;;;;;1.80;0.00;;;;;-146.37;100.00;59337.28;5058885;28;28801;-81
2023/01/15 01:27:23;;;;;;;;;2.00;1.00;;;;;-146.37;100.00;59337.28;5062987;28;27958;-81
2023/01/15 01:29:49;;;;;;;;;0.00;0.00;;;;;-146.37;100.00;59337.28;5061837;28;27956;-82
2023/01/15 01:32:14;;;;;;;;;0.00;0.00;;;;;-146.37;100.00;59337.28;5044381;28;30363;-81
2023/01/15 01:34:40;;;;;;;;;2.00;0.50;;;;;-146.37;100.00;59337.28;5061406;28;28639;-81
2023/01/15 01:37:05;;;;;;;;;1.00;0.25;;;;;-146.37;100.00;59337.28;5062256;28;28408;-81
2023/01/15 01:39:31;;;;;;;;;0.00;0.00;;;;;-146.37;100.00;59337.28;5076847;28;27974;-82
2023/01/15 01:41:56;;;;;;;;;0.00;0.00;;;;;-146.37;100.00;59337.28;5065674;28;29802;-82
2023/01/15 01:44:33;;;;;;;;;0.00;0.00;;;;;-146.37;100.00;59337.28;5082982;28;27794;-82
2023/01/15 01:47:04;;;;;;;;;0.00;0.00;;;;;-146.37;100.00;59337.28;5082369;28;27871;-81
2023/01/15 01:49:30;;;;;;;;;1.40;0.00;;;;;-146.37;100.00;59337.28;5082714;28;28457;-81
2023/01/15 01:52:02;;;;;;;;;0.00;0.00;;;;;-146.37;100.00;59337.28;5094107;28;29353;-83
2023/01/15 01:54:31;;;;;;;;;0.00;0.00;;;;;-146.37;100.00;59337.28;5101772;28;28482;-82
2023/01/15 01:56:57;;;;;;;;;1.00;0.00;;;;;-146.37;100.00;59337.28;5083768;28;27912;-82
2023/01/15 01:59:24;;;;;;;;;0.00;0.00;;;;;-146.37;100.00;59337.28;5102728;28;28490;-82
2023/01/15 02:01:50;;;;;;;;;0.00;0.00;;;;;-146.37;100.00;59337.28;5084378;28;29824;-81
2023/01/15 02:04:19;;;;;;;;;0.00;0.00;;;;;-146.37;100.00;59337.28;5084232;28;29048;-81
2023/01/15 02:06:44;;;;;;;;;0.00;0.00;;;;;-146.37;100.00;59337.28;5083772;28;28871;-82
2023/01/15 02:09:10;;;;;;;;;0.00;0.00;;;;;-146.37;100.00;59337.28;5083200;28;27924;-82
2023/01/15 02:11:36;;;;;;;;;0.60;0.00;;;;;-146.37;100.00;59337.28;5103043;28;28491;-83
2023/01/15 02:14:15;;;;;;;;;0.00;0.00;;;;;-146.37;100.00;59337.28;5085174;28;29639;-81
2023/01/15 02:16:49;;;;;;;;;1.00;1.00;;;;;-146.37;100.00;59337.28;5083028;28;28598;-81
2023/01/15 02:19:28;;;;;;;;;0.00;0.00;;;;;-146.37;100.00;59337.28;5101591;28;28396;-82
2023/01/15 02:22:02;;;;;;;;;0.00;0.00;;;;;-146.37;100.00;59337.28;5100682;28;30075;-82
2023/01/15 02:24:35;;;;;;;;;0.00;0.00;;;;;-146.37;100.00;59337.28;5101824;28;28792;-82
2023/01/15 02:27:13;;;;;;;;;0.00;0.00;;;;;-146.37;100.00;59337.28;5100302;28;28459;-81
2023/01/15 02:30:20;;;;;;;;;0.00;0.00;;;;;-146.37;100.00;59337.28;5083386;28;28449;-81
2023/01/15 02:32:52;;;;;;;;;0.00;0.00;;;;;-146.37;100.00;59337.28;5099568;28;30854;-81
2023/01/15 02:35:27;;;;;;;;;1.00;0.00;;;;;-146.37;100.00;59337.28;5102135;28;27896;-83
2023/01/15 02:37:57;;;;;;;;;0.00;0.00;;;;;-146.37;100.00;59337.28;5083372;28;28403;-81
2023/01/15 02:40:25;;;;;;;;;0.00;0.00;;;;;-146.37;100.00;59337.28;5080515;28;28749;-80
2023/01/15 02:42:53;;;;;;;;;0.00;0.00;;;;;-146.37;100.00;59337.28;5080080;28;30013;-82
2023/01/15 02:45:26;;;;;;;;;0.40;0.40;;;;;-146.37;100.00;59337.28;5097502;28;28673;-81
2023/01/15 02:48:02;;;;;;;;;0.00;0.00;;;;;-146.37;100.00;59337.28;5081923;28;28506;-81
2023/01/15 02:50:34;;;;;;;;;0.00;0.00;;;;;-146.37;100.00;59337.28;5081449;28;28683;-82
2023/01/15 02:53:06;;;;;;;;;0.00;0.00;;;;;-146.37;100.00;59337.28;5078477;28;29885;-82
2023/01/15 02:55:38;;;;;;;;;0.00;0.00;;;;;-146.37;100.00;59337.28;5080824;28;28499;-82
2023/01/15 02:58:10;;;;;;;;;0.00;0.00;;;;;-146.37;100.00;59337.28;5079846;28;28588;-82
2023/01/15 03:00:39;;;;;;;;;0.00;0.00;;;;;-146.37;100.00;59337.28;5080956;28;28570;-82
2023/01/15 03:03:33;;;;;;;;;0.00;0.00;;;;;-146.37;100.00;59337.28;5081422;28;28627;-82
2023/01/15 03:06:12;;;;;;;;;1.00;1.00;;;;;-146.37;100.00;59337.28;5081491;28;27926;-83
2023/01/15 03:08:38;;;;;;;;;0.00;0.00;;;;;-146.37;100.00;59337.28;5080436;28;28739;-82
2023/01/15 03:11:15;;;;;;;;;0.25;0.00;;;;;-146.37;100.00;59337.28;5080626;28;28493;-82
2023/01/15 03:13:56;;;;;;;;;1.00;0.80;;;;;-146.37;100.00;59337.28;5079595;28;30110;-82
2023/01/15 03:16:36;;;;;;;;;1.00;1.00;;;;;-146.37;100.00;59337.28;5078666;28;29659;-82
2023/01/15 03:19:11;;;;;;;;;0.00;0.00;;;;;-146.37;100.00;59337.28;5078707;28;27812;-82
2023/01/15 03:22:06;;;;;;;;;0.20;0.20;;;;;-146.37;100.00;59337.28;5078870;28;28503;-82
2023/01/15 03:24:42;;;;;;;;;0.00;0.00;;;;;-146.37;100.00;59337.28;5079180;28;30444;-82
2023/01/15 03:27:08;;;;;;;;;0.00;0.00;;;;;-146.37;100.00;59337.28;5080886;28;28907;-82
2023/01/15 03:29:50;;;;;;;;;0.00;0.00;;;;;-146.37;100.00;59337.28;5078249;28;28357;-82
2023/01/15 03:32:18;;;;;;;;;1.00;0.00;;;;;-146.37;100.00;59337.28;5079467;28;28009;-83
2023/01/15 03:34:52;;;;;;;;;0.00;0.00;;;;;-146.37;100.00;59337.28;5080039;28;28273;-83
2023/01/15 03:37:20;;;;;;;;;1.00;0.00;;;;;-146.37;100.00;59337.28;5078162;28;29749;-83
2023/01/15 03:39:46;;;;;;;;;1.60;0.00;;;;;-146.37;100.00;59337.28;5079185;28;28523;-83
2023/01/15 03:42:39;;;;;;;;;0.60;0.60;;;;;-146.37;100.00;59337.28;5080566;28;27858;-83
2023/01/15 03:45:25;;;;;;;;;1.00;1.00;;;;;-146.37;100.00;59337.28;5061780;28;28470;-83
2023/01/15 03:48:27;;;;;;;;;0.00;0.00;;;;;-146.37;100.00;59337.28;5079883;28;28516;-83
2023/01/15 03:51:03;;;;;;;;;0.00;0.00;;;;;-146.37;100.00;59337.28;5079706;28;28581;-83
2023/01/15 03:53:37;;;;;;;;;0.75;0.00;;;;;-146.37;100.00;59337.28;5062486;28;27975;-83
2023/01/15 03:56:12;;;;;;;;;0.00;0.00;;;;;-146.37;100.00;59337.28;5061212;28;30279;-82
2023/01/15 03:58:46;;;;;;;;;0.75;0.00;;;;;-146.37;100.00;59337.28;5077826;28;28483;-80
2023/01/15 04:01:19;;;;;;;;;0.00;0.00;;;;;-146.37;100.00;59337.28;5078630;28;27893;-83
2023/01/15 04:03:47;;;;;;;;;0.50;0.00;;;;;-146.37;100.00;59337.28;5061931;28;28784;-82
2023/01/15 04:06:13;;;;;;;;;0.75;0.50;;;;;-146.37;100.00;59337.28;5062037;28;30260;-82
2023/01/15 04:08:44;;;;;;;;;2.20;0.00;;;;;-146.37;100.00;59337.28;5061505;28;28819;-82
2023/01/15 04:11:10;;;;;;;;;0.00;0.00;;;;;-146.37;100.00;59337.28;5080258;28;37954;-82
2023/01/15 04:13:35;;;;;;;;;0.00;0.00;;;;;-146.37;100.00;59337.28;5079686;28;27827;-83
2023/01/15 04:16:01;;;;;;;;;0.00;0.00;;;;;-146.37;100.00;59337.28;5078413;28;28377;-82
2023/01/15 04:18:30;;;;;;;;;1.50;0.00;;;;;-146.37;100.00;59337.28;5079067;28;28483;-81
2023/01/15 04:20:56;;;;;;;;;0.00;0.00;;;;;-146.37;100.00;59337.28;5043589;28;34547;-81
2023/01/15 04:23:22;;;;;;;;;0.25;0.25;;;;;-146.37;100.00;59337.28;5061189;28;31760;-81
2023/01/15 04:25:47;;;;;;;;;1.00;0.00;;;;;-146.37;100.00;59337.28;5060903;28;30620;-82
2023/01/15 04:28:13;;;;;;;;;0.00;0.00;;;;;-146.37;100.00;59337.28;5060738;28;32400;-82
2023/01/15 04:30:41;;;;;;;;;0.00;0.00;;;;;-146.37;100.00;59337.28;5059160;28;39268;-81
2023/01/15 04:33:06;;;;;;;;;0.00;0.00;;;;;-146.37;100.00;59337.28;5060339;28;37399;-82
2023/01/15 04:35:32;;;;;;;;;0.00;0.00;;;;;-146.37;100.00;59337.28;5062878;28;34796;-83
2023/01/15 04:37:58;;;;;;;;;0.00;0.00;;;;;-146.37;100.00;59337.28;5064300;28;36578;-83
2023/01/15 04:46:03;;;;;;;;;0.00;0.00;;;;;-146.37;100.00;59337.28;5036905;28;43413;-80
2023/01/15 04:48:30;;;;;;;;;0.00;0.00;;;;;-146.37;100.00;59337.28;5039037;28;42288;-82
2023/01/15 04:50:55;;;;;;;;;0.00;0.00;;;;;-146.37;100.00;59337.28;5066209;28;42842;-82
2023/01/15 04:53:21;;;;;;;;;0.00;0.00;;;;;-146.37;100.00;59337.28;5050659;28;36961;-82
2023/01/15 04:55:53;;;;;;;;;0.00;0.00;;;;;-146.37;100.00;59337.28;5070460;28;38198;-82
2023/01/15 04:58:19;;;;;;;;;0.00;0.00;;;;;-146.37;100.00;59337.28;5053412;28;27854;-82
2023/01/15 05:00:44;;;;;;;;;0.25;0.00;;;;;-146.37;100.00;59337.28;5066312;28;41520;-83
2023/01/15 05:03:09;;;;;;;;;0.00;0.00;;;;;-146.37;100.00;59337.28;5068887;28;41342;-83
2023/01/15 05:05:35;;;;;;;;;0.00;0.00;;;;;-146.37;100.00;59337.28;5056783;28;24334;-83
2023/01/15 05:08:00;;;;;;;;;1.33;0.00;;;;;-146.37;100.00;59337.28;5073568;28;36965;-82
2023/01/15 05:10:25;;;;;;;;;0.00;0.00;;;;;-146.37;100.00;59337.28;5068936;28;28644;-83
2023/01/15 05:12:51;;;;;;;;;0.00;0.00;;;;;-146.37;100.00;59337.28;5069145;28;28467;-82
2023/01/15 05:15:16;;;;;;;;;0.67;0.67;;;;;-146.37;100.00;59337.28;5074147;28;38210;-82
2023/01/15 05:17:42;;;;;;;;;1.00;0.00;;;;;-146.37;100.00;59337.28;5074297;28;22103;-82
2023/01/15 05:20:08;;;;;;;;;0.00;0.00;;;;;-146.37;100.00;59337.28;5073876;28;41314;-81
2023/01/15 05:22:34;;;;;;;;;0.00;0.00;;;;;-146.37;100.00;59337.28;5066621;28;37539;-81
2023/01/15 05:24:59;;;;;;;;;0.00;0.00;;;;;-146.37;100.00;59337.28;5098464;28;36568;-82
2023/01/15 05:27:25;;;;;;;;;0.00;0.00;;;;;-146.37;100.00;59337.28;5098492;28;37398;-81
2023/01/15 05:29:50;;;;;;;;;1.00;0.00;;;;;-146.37;100.00;59337.28;5100332;28;26628;-81
2023/01/15 05:32:16;;;;;;;;;0.00;0.00;;;;;-146.37;100.00;59337.28;5082320;28;25236;-82
2023/01/15 05:34:42;;;;;;;;;0.00;0.00;;;;;-146.37;100.00;59337.28;5098478;28;27911;-81
2023/01/15 05:37:08;;;;;;;;;0.00;0.00;;;;;-146.37;100.00;59337.28;5082202;28;23026;-81
2023/01/15 05:39:33;;;;;;;;;0.00;0.00;;;;;-146.37;100.00;59337.28;5088141;28;40146;-81
2023/01/15 05:41:58;;;;;;;;;0.00;0.00;;;;;-146.37;100.00;59337.28;5098117;28;22515;-81
2023/01/15 05:44:28;;;;;;;;;0.00;0.00;;;;;-146.37;100.00;59337.28;5100215;28;27910;-81
2023/01/15 05:46:59;;;;;;;;;0.25;0.00;;;;;-146.37;100.00;59337.28;5101524;28;27753;-83
2023/01/15 05:49:26;;;;;;;;;0.00;0.00;;;;;-146.37;100.00;59337.28;5099558;28;26593;-82
2023/01/15 05:51:52;;;;;;;;;0.25;0.00;;;;;-146.37;100.00;59337.28;5101228;28;34275;-82
2023/01/15 05:54:24;;;;;;;;;0.00;0.00;;;;;-146.37;100.00;59337.28;5068254;28;45364;-82
2023/01/15 05:56:49;;;;;;;;;0.00;0.00;;;;;-146.37;100.00;59337.28;5057435;28;45282;-82
2023/01/15 05:59:17;;;;;;;;;0.00;0.00;;;;;-146.37;100.00;59337.28;5047239;28;45505;-82
2023/01/15 06:01:43;;;;;;;;;0.00;0.00;;;;;-146.37;100.00;59337.28;5046325;28;45246;-82
2023/01/15 06:04:09;;;;;;;;;0.00;0.00;;;;;-146.37;100.00;59337.28;5029016;28;48320;-83
2023/01/15 06:06:35;;;;;;;;;0.33;0.00;;;;;-146.37;100.00;59337.28;5028935;28;45509;-82
2023/01/15 06:09:02;;;;;;;;;0.00;0.00;;;;;-146.37;100.00;59337.28;5028470;28;45448;-82
2023/01/15 06:11:27;;;;;;;;;0.00;0.00;;;;;-146.37;100.00;59337.28;5028210;28;45307;-81
2023/01/15 06:13:53;;;;;;;;;0.00;0.00;;;;;-146.37;100.00;59337.28;5045559;28;45337;-81
2023/01/15 06:16:18;;;;;;;;;0.00;0.00;;;;;-146.37;100.00;59337.28;5027498;28;45553;-81
2023/01/15 06:18:44;;;;;;;;;1.00;0.00;;;;;-146.37;100.00;59337.28;5045741;28;45281;-82
2023/01/15 06:21:11;;;;;;;;;0.00;0.00;;;;;-146.37;100.00;59337.28;5046802;28;45303;-81
2023/01/15 06:23:38;;;;;;;;;0.00;0.00;;;;;-146.37;100.00;59337.28;5028901;28;47072;-82
2023/01/15 06:26:11;;;;;;;;;0.00;0.00;;;;;-146.37;100.00;59337.28;5045738;28;45496;-82
2023/01/15 06:28:36;;;;;;;;;0.00;0.00;;;;;-146.37;100.00;59337.28;5027174;28;45369;-81
2023/01/15 06:31:07;;;;;;;;;0.00;0.00;;;;;-146.37;100.00;59337.28;5029025;28;45408;-83
2023/01/15 06:33:32;;;;;;;;;0.00;0.00;;;;;-146.37;100.00;59337.28;5046573;28;46443;-82
2023/01/15 06:35:57;;;;;;;;;0.00;0.00;;;;;-146.37;100.00;59337.28;5029339;28;45402;-82
2023/01/15 06:38:23;;;;;;;;;0.00;0.00;;;;;-146.37;100.00;59337.28;5027891;28;45459;-82
2023/01/15 06:40:48;;;;;;;;;0.00;0.00;;;;;-146.37;100.00;59337.28;5047839;28;45646;-81
2023/01/15 06:48:42;;;;;;;;;0.00;0.00;;;;;-146.37;100.00;59337.28;5067817;28;45346;-81
2023/01/15 06:51:08;;;;;;;;;0.00;0.00;;;;;-146.37;100.00;59337.28;5048660;28;45550;-82
2023/01/15 06:53:33;;;;;;;;;0.00;0.00;;;;;-146.37;100.00;59337.28;5048090;28;47908;-82
2023/01/15 06:56:00;;;;;;;;;0.00;0.00;;;;;-146.37;100.00;59337.28;5068888;28;45351;-84
2023/01/15 06:58:25;;;;;;;;;0.00;0.00;;;;;-146.37;100.00;59337.28;5086950;28;45403;-83
2023/01/15 07:00:55;;;;;;;;;0.00;0.00;;;;;-146.37;100.00;59337.28;5068772;28;45587;-83
2023/01/15 07:03:21;;;;;;;;;0.00;0.00;;;;;-146.37;100.00;59337.28;5086592;28;46213;-82
2023/01/15 07:05:47;;;;;;;;;0.00;0.00;;;;;-146.37;100.00;59337.28;5085290;28;45527;-83
2023/01/15 07:08:12;;;;;;;;;2.00;0.00;;;;;-146.37;100.00;59337.28;5068698;28;45414;-83
2023/01/15 07:10:40;;;;;;;;;0.00;0.00;;;;;-146.37;100.00;59337.28;5068477;28;45825;-81
2023/01/15 07:13:06;;;;;;;;;0.00;0.00;;;;;-146.37;100.00;59337.28;5086145;28;45499;-82
2023/01/15 07:15:31;;;;;;;;;0.00;0.00;;;;;-146.37;100.00;59337.28;5085558;28;45468;-83
2023/01/15 07:17:57;;;;;;;;;0.00;0.00;;;;;-146.37;100.00;59337.28;5067886;28;45416;-83
2023/01/15 07:20:23;;;;;;;;;0.00;0.00;;;;;-146.37;100.00;59337.28;5085618;28;45443;-83
2023/01/15 07:22:50;;;;;;;;;0.00;0.00;;;;;-146.37;100.00;59337.28;5083356;28;48571;-83
2023/01/15 07:25:16;;;;;;;;;1.00;0.00;;;;;-146.37;100.00;59337.28;5066844;28;45403;-81
2023/01/15 07:27:41;;;;;;;;;0.33;0.00;;;;;-146.37;100.00;59337.28;5084981;28;45371;-82
2023/01/15 07:30:07;;;;;;;;;0.00;0.00;;;;;-146.37;100.00;59337.28;5066886;28;45421;-83
2023/01/15 07:32:33;;;;;;;;;0.00;0.00;;;;;-146.37;100.00;59337.28;5085984;28;45787;-82
2023/01/15 07:34:58;;;;;;;;;0.00;0.00;;;;;-146.37;100.00;59337.28;5068435;28;45475;-82
2023/01/15 07:37:23;;;;;;;;;0.00;0.00;;;;;-146.37;100.00;59337.28;5067853;28;45540;-82
2023/01/15 07:39:49;;;;;;;;;0.00;0.00;;;;;-146.37;100.00;59337.28;5058183;28;45366;-82
2023/01/15 07:50:26;;;;;;;;;1.00;1.00;;;;;-146.37;100.00;59337.28;5065955;28;45420;-82
2023/01/15 07:52:52;;;;;;;;;2.00;1.00;;;;;-146.37;100.00;59337.28;5065134;28;45531;-82
2023/01/15 07:55:17;;;;;;;;;0.00;0.00;;;;;-146.37;100.00;59337.28;5064139;28;45699;-82
2023/01/15 07:57:43;;;;;;;;;0.00;0.00;;;;;-146.37;100.00;59337.28;5047199;28;45536;-83
2023/01/15 08:00:18;;;;;;;;;0.00;0.00;;;;;-146.37;100.00;59337.28;5047694;28;45435;-83
2023/01/15 08:02:44;;;;;;;;;0.00;0.00;;;;;-146.37;100.00;59337.28;5065974;28;46643;-83
2023/01/15 08:05:11;;;;;;;;;0.00;0.00;;;;;-146.37;100.00;59337.28;5047806;28;45721;-82
2023/01/15 08:07:41;;;;;;;;;0.67;0.67;;;;;-146.37;100.00;59337.28;5065871;28;45405;-83
2023/01/15 08:10:08;;;;;;;;;0.00;0.00;;;;;-146.37;100.00;59337.28;5065371;28;45485;-83
2023/01/15 08:15:17;;;;;;;;;2.00;0.00;;;;;-146.37;100.00;59337.28;5045063;28;45518;-82
2023/01/15 08:17:45;;;;;;;;;1.33;0.00;;;;;-146.37;100.00;59337.28;5042890;28;45702;-82
2023/01/15 08:20:17;;;;;;;;;0.00;0.00;;;;;-146.37;100.00;59337.28;5043411;28;45484;-81
2023/01/15 08:22:43;;;;;;;;;0.00;0.00;;;;;-146.37;100.00;59337.28;5043658;28;45570;-81
2023/01/15 08:25:11;;;;;;;;;1.33;0.00;;;;;-146.37;100.00;59337.28;5042960;28;45466;-82
2023/01/15 08:27:39;;;;;;;;;0.00;0.00;;;;;-146.37;100.00;59337.28;5043884;28;45386;-83
2023/01/15 08:30:06;;;;;;;;;0.00;0.00;;;;;-146.37;100.00;59337.28;5041817;28;45743;-82
2023/01/15 08:32:32;;;;;;;;;0.00;0.00;;;;;-146.37;100.00;59337.28;5025511;28;47051;-81
2023/01/15 08:34:58;;;;;;;;;0.33;0.33;;;;;-146.37;100.00;59337.28;5026428;28;45416;-82
2023/01/15 08:37:23;;;;;;;;;2.33;0.33;;;;;-146.37;100.00;59337.28;5047709;28;45448;-82
2023/01/15 08:39:51;;;;;;;;;3.00;0.00;;;;;-146.37;100.00;59337.28;5048353;28;45485;-83
2023/01/15 08:42:17;;;;;;;;;0.67;0.67;;;;;-146.37;100.00;59337.28;5049653;28;45399;-82
2023/01/15 08:44:44;;;;;;;;;0.00;0.00;;;;;-146.37;100.00;59337.28;5048481;28;45397;-81
2023/01/15 08:47:09;;;;;;;;;2.67;1.00;;;;;-146.37;100.00;59337.28;5046425;28;45206;-82
2023/01/15 08:49:35;;;;;;;;;0.67;0.00;;;;;-146.37;100.00;59337.28;5047643;28;45342;-82
2023/01/15 08:52:00;;;;;;;;;2.00;2.00;;;;;-146.37;100.00;59337.28;5064285;28;48257;-82
2023/01/15 08:54:26;;;;;;;;;1.00;1.00;;;;;-146.37;100.00;59337.28;5046966;28;45478;-81
2023/01/15 08:57:30;;;;;;;;;2.00;1.00;;;;;-146.37;100.00;59337.28;5047438;28;45421;-82
2023/01/15 09:00:03;;;;;;;;;0.33;0.00;;;;;-146.37;100.00;59337.28;5047058;28;45508;-82
2023/01/15 09:02:28;;;;;;;;;2.00;0.00;;;;;-146.37;100.00;59337.28;5050263;28;45525;-83
2023/01/15 09:04:54;;;;;;;;;1.00;1.00;;;;;-146.37;100.00;59337.28;5029413;28;45615;-82
2023/01/15 09:07:19;;;;;;;;;0.33;0.00;;;;;-146.37;100.00;59337.28;5029139;28;45467;-82
2023/01/15 09:09:46;;;;;;;;;1.00;1.00;;;;;-146.37;100.00;59337.28;5047848;28;45379;-81
2023/01/15 09:12:11;;;;;;;;;0.00;0.00;;;;;-146.37;100.00;59337.28;5047337;28;45524;-82
2023/01/15 09:14:39;;;;;;;;;2.00;2.00;;;;;-146.37;100.00;59337.28;5047133;28;45502;-82
2023/01/15 09:17:05;;;;;;;;;1.00;1.00;;;;;-146.37;100.00;59337.28;5047206;28;45926;-82
2023/01/15 09:19:33;;;;;;;;;1.67;1.00;;;;;-146.37;100.00;59337.28;5031233;28;45604;-82
2023/01/15 09:28:42;;;;;;;;;3.00;1.00;;;;;-146.37;100.00;59337.28;5048151;28;45398;-83
2023/01/15 09:31:08;;;;;;;;;0.00;0.00;;;;;-146.37;100.00;59337.28;5047788;28;45560;-82
2023/01/15 09:33:33;;;;;;;;;1.00;1.00;;;;;-146.37;100.00;59337.28;5047369;28;46472;-82
2023/01/15 09:35:59;;;;;;;;;2.00;2.00;;;;;-146.37;100.00;59337.28;5030830;28;45507;-83
2023/01/15 09:38:24;;;;;;;;;1.00;1.00;;;;;-146.37;100.00;59337.28;5047395;28;45340;-82
2023/01/15 09:40:55;;;;;;;;;1.00;1.00;;;;;-146.37;100.00;59337.28;5046555;28;45911;-81
2023/01/15 09:43:44;;;;;;;;;0.00;0.00;;;;;-146.37;100.00;59337.28;5048740;28;46815;-82
2023/01/15 09:46:18;;;;;;;;;0.00;0.00;;;;;-146.37;100.00;59337.28;5066497;28;45458;-82
2023/01/15 09:49:08;;;;;;;;;0.00;0.00;;;;;-146.37;100.00;59337.28;5049452;28;45535;-82
2023/01/15 09:51:51;;;;;;;;;0.67;0.00;;;;;-146.37;100.00;59337.28;5066824;28;45412;-80
2023/01/15 09:54:36;;;;;;;;;2.00;0.00;;;;;-146.37;100.00;59337.28;5049052;28;47339;-82
2023/01/15 09:57:09;;;;;;;;;1.00;1.00;;;;;-146.37;100.00;59337.28;5048841;28;45821;-81
2023/01/15 09:59:36;;;;;;;;;1.67;1.00;;;;;-146.37;100.00;59337.28;5066189;28;45459;-83
2023/01/15 10:02:21;;;;;;;;;2.33;0.67;;;;;-146.37;100.00;59337.28;5066159;28;45494;-82
2023/01/15 10:04:55;;;;;;;;;2.67;0.00;;;;;-146.37;100.00;59337.28;5065665;28;45370;-82
2023/01/15 10:07:35;;;;;;;;;1.00;1.00;;;;;-146.37;100.00;59337.28;5047032;28;45972;-82
2023/01/15 10:10:04;;;;;;;;;3.00;1.00;;;;;-146.37;100.00;59337.28;5065677;28;45479;-82
2023/01/15 10:12:34;;;;;;;;;1.33;0.33;;;;;-146.37;100.00;59337.28;5065541;28;46060;-82
2023/01/15 10:15:09;;;;;;;;;2.33;0.67;;;;;-146.37;100.00;59337.28;5046631;28;47309;-83
2023/01/15 10:17:42;;;;;;;;;3.00;1.00;;;;;-146.37;100.00;59337.28;5065489;28;45870;-81
2023/01/15 10:20:44;;;;;;;;;0.00;0.00;;;;;-146.37;100.00;59337.28;5065652;28;45413;-82
2023/01/15 10:23:29;;;;;;;;;1.00;1.00;;;;;-146.37;100.00;59337.28;5067680;28;44891;-82
2023/01/15 10:26:07;;;;;;;;;0.00;0.00;;;;;-146.37;100.00;59337.28;5048177;28;46691;-83
2023/01/15 10:29:10;;;;;;;;;1.67;1.00;;;;;-146.37;100.00;59337.28;5065067;28;44785;-82
2023/01/15 10:31:53;;;;;;;;;2.33;2.33;;;;;-146.37;100.00;59337.28;5047131;28;45492;-81
2023/01/15 10:34:27;;;;;;;;;1.00;0.00;;;;;-146.37;100.00;59337.28;5064799;28;45379;-81
2023/01/15 10:37:17;;;;;;;;;1.00;1.00;;;;;-146.37;100.00;59337.28;5045603;28;47407;-82
2023/01/15 10:40:04;;;;;;;;;2.33;1.00;;;;;-146.37;100.00;59337.28;5059501;28;45409;-82
2023/01/15 10:43:23;;;;;;;;;1.00;1.00;;;;;-146.37;100.00;59337.28;5045106;28;45254;-82
2023/01/15 10:45:56;;;;;;;;;0.33;0.33;;;;;-146.37;100.00;59337.28;4982968;28;45493;-82
2023/01/15 10:48:37;;;;;;;;;2.00;2.00;;;;;-146.37;100.00;59337.28;4983705;28;45526;-81
2023/01/15 10:51:13;;;;;;;;;0.00;0.00;;;;;-146.37;100.00;59337.28;4967454;28;45447;-83
2023/01/15 10:53:41;;;;;;;;;2.00;0.67;;;;;-146.37;100.00;59337.28;4966674;28;45492;-82
2023/01/15 10:56:21;;;;;;;;;2.33;2.33;;;;;-146.37;100.00;59337.28;4984223;28;45535;-82
2023/01/15 10:59:29;;;;;;;;;1.67;1.67;;;;;-146.37;100.00;59337.28;4983392;28;45451;-81
2023/01/15 11:01:58;;;;;;;;;0.00;0.00;;;;;-146.37;100.00;59337.28;4982141;28;45429;-81
2023/01/15 11:04:26;;;;;;;;;1.00;1.00;;;;;-146.37;100.00;59337.28;4981495;28;45368;-82
2023/01/15 11:06:51;;;;;;;;;3.00;1.00;;;;;-146.37;100.00;59337.28;5003001;28;45605;-82
2023/01/15 11:09:23;;;;;;;;;3.33;2.00;;;;;-146.37;100.00;59337.28;5002765;28;47109;-83
2023/01/15 11:20:33;;;;;;;;;1.00;1.00;;;;;-146.37;100.00;59337.28;5036745;28;45771;-83
2023/01/15 11:23:11;;;;;;;;;1.33;0.00;;;;;-146.37;100.00;59337.28;5045094;28;45434;-83
2023/01/15 11:25:38;;;;;;;;;1.67;1.67;;;;;-146.37;100.00;59337.28;5026770;28;45390;-83
2023/01/15 11:28:05;;;;;;;;;2.00;2.00;;;;;-146.37;100.00;59337.28;5046049;28;45351;-83
2023/01/15 11:30:33;;;;;;;;;2.00;2.00;;;;;-146.37;100.00;59337.28;5026678;28;47289;-82
2023/01/15 11:33:05;;;;;;;;;4.67;4.67;;;;;-146.37;100.00;59337.28;5043881;28;45421;-82
2023/01/15 11:35:32;;;;;;;;;1.00;1.00;;;;;-146.37;100.00;59337.28;5042491;28;45477;-83
2023/01/15 11:38:13;;;;;;;;;2.00;2.00;;;;;-146.37;100.00;59337.28;5026021;28;45512;-82
2023/01/15 11:40:39;;;;;;;;;2.00;0.00;;;;;-146.37;100.00;59337.28;5052060;28;47227;-82
2023/01/15 11:51:43;;;;;;;;;1.33;0.00;;;;;-146.37;100.00;59337.28;5042494;28;45576;-83
2023/01/15 11:54:14;;;;;;;;;1.67;0.67;;;;;-146.37;100.00;59337.28;5042463;28;45430;-82
2023/01/15 11:56:42;;;;;;;;;2.33;2.00;;;;;-146.37;100.00;59337.28;5042419;28;45896;-81
2023/01/15 11:59:13;;;;;;;;;2.00;0.00;;;;;-146.37;100.00;59337.28;5024803;28;45526;-81
2023/01/15 12:01:58;;;;;;;;;0.00;0.00;;;;;-146.37;100.00;59337.28;5041069;28;47219;-82
2023/01/15 12:04:33;;;;;;;;;1.00;1.00;;;;;-146.37;100.00;59337.28;5041203;28;45432;-82
2023/01/15 12:06:59;;;;;;;;;3.67;1.00;;;;;-146.37;100.00;59337.28;5042748;28;45419;-82
2023/01/15 12:09:40;;;;;;;;;2.67;2.00;;;;;-146.37;100.00;59337.28;5044034;28;45318;-82
2023/01/15 12:12:05;;;;;;;;;1.33;1.33;;;;;-146.37;100.00;59337.28;5041761;28;46651;-82
2023/01/15 12:14:58;;;;;;;;;1.33;1.33;;;;;-146.37;100.00;59337.28;5042322;28;45494;-82